sensor_id;sensor_type;location;lat;lon;timestamp;pressure;altitude;pressure_sealevel;temperature;humidity
9774;BME280;4926;42.670;23.316;2024-03-08T00:00:54;94567.44;;;5.09;77.50
9774;BME280;4926;42.670;23.316;2024-03-08T00:03:20;94563.56;;;4.96;78.77
9774;BME280;4926;42.670;23.316;2024-03-08T00:05:45;94571.22;;;4.98;79.01
9774;BME280;4926;42.670;23.316;2024-03-08T00:08:10;94568.69;;;5.06;77.87
9774;BME280;4926;42.670;23.316;2024-03-08T00:10:36;94577.13;;;4.88;77.58
9774;BME280;4926;42.670;23.316;2024-03-08T00:13:04;94573.19;;;4.95;77.36
9774;BME280;4926;42.670;23.316;2024-03-08T00:15:30;94570.75;;;5.06;77.75
9774;BME280;4926;42.670;23.316;2024-03-08T00:17:57;94568.06;;;5.08;78.19
9774;BME280;4926;42.670;23.316;2024-03-08T00:20:23;94564.56;;;5.05;76.96
9774;BME280;4926;42.670;23.316;2024-03-08T00:22:51;94561.66;;;5.01;77.70
9774;BME280;4926;42.670;23.316;2024-03-08T00:25:17;94558.34;;;5.07;78.00
9774;BME280;4926;42.670;23.316;2024-03-08T00:27:43;94563.84;;;5.05;77.52
9774;BME280;4926;42.670;23.316;2024-03-08T00:30:09;94560.56;;;5.10;76.46
9774;BME280;4926;42.670;23.316;2024-03-08T00:32:38;94557.28;;;5.16;76.19
9774;BME280;4926;42.670;23.316;2024-03-08T00:35:04;94555.31;;;5.18;76.78
9774;BME280;4926;42.670;23.316;2024-03-08T00:37:29;94552.13;;;5.06;76.87
9774;BME280;4926;42.670;23.316;2024-03-08T00:39:57;94557.31;;;4.96;77.11
9774;BME280;4926;42.670;23.316;2024-03-08T00:42:23;94555.28;;;4.96;77.37
9774;BME280;4926;42.670;23.316;2024-03-08T00:44:49;94548.53;;;5.02;77.14
9774;BME280;4926;42.670;23.316;2024-03-08T00:47:17;94547.75;;;4.99;78.63
9774;BME280;4926;42.670;23.316;2024-03-08T00:49:42;94552.31;;;4.90;78.63
9774;BME280;4926;42.670;23.316;2024-03-08T00:52:08;94540.31;;;5.04;77.94
9774;BME280;4926;42.670;23.316;2024-03-08T00:54:34;94538.13;;;5.00;77.97
9774;BME280;4926;42.670;23.316;2024-03-08T00:57:01;94539.34;;;4.95;77.74
9774;BME280;4926;42.670;23.316;2024-03-08T00:59:28;94534.59;;;4.97;77.44
9774;BME280;4926;42.670;23.316;2024-03-08T01:01:57;94541.22;;;4.69;79.08
9774;BME280;4926;42.670;23.316;2024-03-08T01:04:22;94522.69;;;4.51;79.17
9774;BME280;4926;42.670;23.316;2024-03-08T01:06:48;94536.25;;;4.65;78.43
9774;BME280;4926;42.670;23.316;2024-03-08T01:09:13;94525.09;;;4.61;79.07
9774;BME280;4926;42.670;23.316;2024-03-08T01:11:39;94521.03;;;4.64;78.64
9774;BME280;4926;42.670;23.316;2024-03-08T01:14:05;94524.78;;;4.73;80.06
9774;BME280;4926;42.670;23.316;2024-03-08T01:16:31;94530.31;;;4.73;80.24
9774;BME280;4926;42.670;23.316;2024-03-08T01:18:58;94526.22;;;4.54;80.54
9774;BME280;4926;42.670;23.316;2024-03-08T01:21:27;94531.81;;;4.56;79.39
9774;BME280;4926;42.670;23.316;2024-03-08T01:23:52;94516.75;;;4.39;81.12
9774;BME280;4926;42.670;23.316;2024-03-08T01:26:18;94522.19;;;4.37;80.63
9774;BME280;4926;42.670;23.316;2024-03-08T01:28:43;94523.84;;;4.44;80.97
9774;BME280;4926;42.670;23.316;2024-03-08T01:31:12;94512.97;;;4.50;81.18
9774;BME280;4926;42.670;23.316;2024-03-08T01:33:39;94506.25;;;4.55;80.12
9774;BME280;4926;42.670;23.316;2024-03-08T01:36:05;94509.25;;;4.61;80.67
9774;BME280;4926;42.670;23.316;2024-03-08T01:38:31;94505.00;;;4.58;80.24
9774;BME280;4926;42.670;23.316;2024-03-08T01:40:57;94514.06;;;4.61;79.75
9774;BME280;4926;42.670;23.316;2024-03-08T01:43:25;94512.19;;;4.68;79.34
9774;BME280;4926;42.670;23.316;2024-03-08T01:45:52;94508.94;;;4.53;79.87
9774;BME280;4926;42.670;23.316;2024-03-08T01:48:18;94506.53;;;4.63;78.99
9774;BME280;4926;42.670;23.316;2024-03-08T01:50:44;94507.75;;;4.58;79.97
9774;BME280;4926;42.670;23.316;2024-03-08T01:53:11;94515.72;;;4.70;79.35
9774;BME280;4926;42.670;23.316;2024-03-08T01:55:43;94508.47;;;4.59;78.87
9774;BME280;4926;42.670;23.316;2024-03-08T01:58:10;94501.34;;;4.74;79.69
9774;BME280;4926;42.670;23.316;2024-03-08T02:00:38;94504.13;;;4.74;78.11
9774;BME280;4926;42.670;23.316;2024-03-08T02:03:05;94508.38;;;4.77;77.28
9774;BME280;4926;42.670;23.316;2024-03-08T02:05:31;94499.00;;;4.86;78.60
9774;BME280;4926;42.670;23.316;2024-03-08T02:08:02;94495.75;;;4.93;76.78
9774;BME280;4926;42.670;23.316;2024-03-08T02:10:28;94505.22;;;4.86;77.30
9774;BME280;4926;42.670;23.316;2024-03-08T02:12:55;94505.66;;;4.79;77.08
9774;BME280;4926;42.670;23.316;2024-03-08T02:15:20;94503.59;;;4.79;77.94
9774;BME280;4926;42.670;23.316;2024-03-08T02:17:46;94506.06;;;4.91;78.52
9774;BME280;4926;42.670;23.316;2024-03-08T02:20:12;94508.44;;;5.01;77.15
9774;BME280;4926;42.670;23.316;2024-03-08T02:22:38;94498.16;;;5.03;76.44
9774;BME280;4926;42.670;23.316;2024-03-08T02:25:04;94504.91;;;4.98;77.59
9774;BME280;4926;42.670;23.316;2024-03-08T02:27:31;94507.16;;;5.04;77.47
9774;BME280;4926;42.670;23.316;2024-03-08T02:29:57;94516.19;;;5.06;77.22
9774;BME280;4926;42.670;23.316;2024-03-08T02:32:23;94514.91;;;5.09;76.17
9774;BME280;4926;42.670;23.316;2024-03-08T02:34:49;94516.41;;;5.12;76.27
9774;BME280;4926;42.670;23.316;2024-03-08T02:37:16;94521.28;;;5.14;75.82
9774;BME280;4926;42.670;23.316;2024-03-08T02:39:41;94520.81;;;5.21;74.76
9774;BME280;4926;42.670;23.316;2024-03-08T02:42:07;94524.94;;;5.20;74.65
9774;BME280;4926;42.670;23.316;2024-03-08T02:44:33;94527.66;;;5.18;74.52
9774;BME280;4926;42.670;23.316;2024-03-08T02:46:59;94519.63;;;5.05;72.66
9774;BME280;4926;42.670;23.316;2024-03-08T02:49:28;94522.50;;;5.09;73.61
9774;BME280;4926;42.670;23.316;2024-03-08T02:51:56;94524.31;;;5.00;71.90
9774;BME280;4926;42.670;23.316;2024-03-08T02:54:26;94525.44;;;4.93;69.05
9774;BME280;4926;42.670;23.316;2024-03-08T02:56:52;94520.00;;;4.95;70.69
9774;BME280;4926;42.670;23.316;2024-03-08T02:59:17;94529.75;;;4.98;70.91
9774;BME280;4926;42.670;23.316;2024-03-08T03:01:44;94526.94;;;4.96;69.22
9774;BME280;4926;42.670;23.316;2024-03-08T03:04:09;94520.78;;;4.97;69.24
9774;BME280;4926;42.670;23.316;2024-03-08T03:06:37;94519.22;;;4.92;70.08
9774;BME280;4926;42.670;23.316;2024-03-08T03:09:03;94527.72;;;4.98;68.55
9774;BME280;4926;42.670;23.316;2024-03-08T03:11:31;94530.72;;;4.85;69.41
9774;BME280;4926;42.670;23.316;2024-03-08T03:13:56;94525.63;;;4.77;69.43
9774;BME280;4926;42.670;23.316;2024-03-08T03:16:22;94523.31;;;4.91;68.35
9774;BME280;4926;42.670;23.316;2024-03-08T03:18:48;94530.84;;;4.89;68.55
9774;BME280;4926;42.670;23.316;2024-03-08T03:21:14;94534.97;;;4.88;69.35
9774;BME280;4926;42.670;23.316;2024-03-08T03:23:40;94535.06;;;4.70;69.09
9774;BME280;4926;42.670;23.316;2024-03-08T03:26:08;94528.97;;;4.74;69.43
9774;BME280;4926;42.670;23.316;2024-03-08T03:28:33;94534.81;;;4.84;68.13
9774;BME280;4926;42.670;23.316;2024-03-08T03:30:59;94542.25;;;4.79;68.54
9774;BME280;4926;42.670;23.316;2024-03-08T03:33:25;94546.75;;;4.69;67.49
9774;BME280;4926;42.670;23.316;2024-03-08T03:35:50;94545.66;;;4.78;68.91
9774;BME280;4926;42.670;23.316;2024-03-08T03:38:17;94540.09;;;4.76;68.81
9774;BME280;4926;42.670;23.316;2024-03-08T03:40:45;94551.13;;;4.76;68.71
9774;BME280;4926;42.670;23.316;2024-03-08T03:43:11;94556.19;;;4.61;68.19
9774;BME280;4926;42.670;23.316;2024-03-08T03:45:37;94550.91;;;4.70;68.00
9774;BME280;4926;42.670;23.316;2024-03-08T03:48:03;94554.84;;;4.62;68.07
9774;BME280;4926;42.670;23.316;2024-03-08T03:50:29;94552.41;;;4.73;68.01
9774;BME280;4926;42.670;23.316;2024-03-08T03:52:55;94546.88;;;4.73;68.17
9774;BME280;4926;42.670;23.316;2024-03-08T03:55:21;94558.28;;;4.83;68.42
9774;BME280;4926;42.670;23.316;2024-03-08T03:57:47;94559.06;;;4.85;67.55
9774;BME280;4926;42.670;23.316;2024-03-08T04:00:13;94561.41;;;4.73;67.91
9774;BME280;4926;42.670;23.316;2024-03-08T04:02:39;94564.94;;;4.76;67.99
9774;BME280;4926;42.670;23.316;2024-03-08T04:05:06;94564.28;;;4.77;67.75
9774;BME280;4926;42.670;23.316;2024-03-08T04:07:32;94570.25;;;4.70;68.56
9774;BME280;4926;42.670;23.316;2024-03-08T04:09:58;94577.47;;;4.79;67.26
9774;BME280;4926;42.670;23.316;2024-03-08T04:12:23;94568.28;;;4.72;69.06
9774;BME280;4926;42.670;23.316;2024-03-08T04:14:49;94573.72;;;4.70;68.30
9774;BME280;4926;42.670;23.316;2024-03-08T04:17:15;94568.97;;;4.73;69.27
9774;BME280;4926;42.670;23.316;2024-03-08T04:19:40;94577.91;;;4.71;70.13
9774;BME280;4926;42.670;23.316;2024-03-08T04:22:06;94583.78;;;4.61;68.68
9774;BME280;4926;42.670;23.316;2024-03-08T04:24:33;94581.75;;;4.62;68.81
9774;BME280;4926;42.670;23.316;2024-03-08T04:26:58;94582.72;;;4.51;70.10
9774;BME280;4926;42.670;23.316;2024-03-08T04:29:24;94582.44;;;4.62;68.98
9774;BME280;4926;42.670;23.316;2024-03-08T04:31:50;94589.03;;;4.53;70.41
9774;BME280;4926;42.670;23.316;2024-03-08T04:34:20;94589.81;;;4.56;70.51
9774;BME280;4926;42.670;23.316;2024-03-08T04:36:46;94594.22;;;4.63;70.21
9774;BME280;4926;42.670;23.316;2024-03-08T04:39:11;94598.94;;;4.60;70.00
9774;BME280;4926;42.670;23.316;2024-03-08T04:41:42;94600.63;;;4.50;71.53
9774;BME280;4926;42.670;23.316;2024-03-08T04:44:09;94596.00;;;4.37;71.66
9774;BME280;4926;42.670;23.316;2024-03-08T04:46:40;94601.47;;;4.35;71.57
9774;BME280;4926;42.670;23.316;2024-03-08T04:49:06;94596.88;;;4.41;71.95
9774;BME280;4926;42.670;23.316;2024-03-08T04:51:40;94599.16;;;4.47;72.26
9774;BME280;4926;42.670;23.316;2024-03-08T04:54:11;94604.09;;;4.50;71.45
9774;BME280;4926;42.670;23.316;2024-03-08T04:56:57;94596.88;;;4.41;72.05
9774;BME280;4926;42.670;23.316;2024-03-08T04:59:32;94574.84;;;4.23;72.50
9774;BME280;4926;42.670;23.316;2024-03-08T05:02:05;94607.75;;;4.37;73.65
9774;BME280;4926;42.670;23.316;2024-03-08T05:04:32;94612.56;;;4.37;72.48
9774;BME280;4926;42.670;23.316;2024-03-08T05:07:01;94597.88;;;4.30;73.54
9774;BME280;4926;42.670;23.316;2024-03-08T05:09:29;94603.38;;;4.30;73.18
9774;BME280;4926;42.670;23.316;2024-03-08T05:11:57;94627.47;;;4.47;72.34
9774;BME280;4926;42.670;23.316;2024-03-08T05:14:25;94615.78;;;4.49;73.49
9774;BME280;4926;42.670;23.316;2024-03-08T05:16:50;94622.59;;;4.46;72.77
9774;BME280;4926;42.670;23.316;2024-03-08T05:19:17;94613.31;;;4.57;73.50
9774;BME280;4926;42.670;23.316;2024-03-08T05:21:46;94620.97;;;4.58;73.23
9774;BME280;4926;42.670;23.316;2024-03-08T05:24:15;94627.28;;;4.61;72.90
9774;BME280;4926;42.670;23.316;2024-03-08T05:26:41;94635.81;;;4.69;74.17
9774;BME280;4926;42.670;23.316;2024-03-08T05:29:08;94639.34;;;4.52;73.40
9774;BME280;4926;42.670;23.316;2024-03-08T05:31:46;94637.22;;;4.50;74.57
9774;BME280;4926;42.670;23.316;2024-03-08T05:34:13;94641.91;;;4.46;74.67
9774;BME280;4926;42.670;23.316;2024-03-08T05:36:40;94646.78;;;4.47;74.78
9774;BME280;4926;42.670;23.316;2024-03-08T05:39:06;94651.09;;;4.52;73.35
9774;BME280;4926;42.670;23.316;2024-03-08T05:41:32;94652.44;;;4.51;75.04
9774;BME280;4926;42.670;23.316;2024-03-08T05:43:58;94658.31;;;4.42;75.22
9774;BME280;4926;42.670;23.316;2024-03-08T05:46:23;94662.59;;;4.27;75.28
9774;BME280;4926;42.670;23.316;2024-03-08T05:48:49;94660.00;;;4.31;76.35
9774;BME280;4926;42.670;23.316;2024-03-08T05:51:14;94663.47;;;4.32;75.38
9774;BME280;4926;42.670;23.316;2024-03-08T05:53:40;94671.97;;;4.38;76.56
9774;BME280;4926;42.670;23.316;2024-03-08T05:56:06;94670.81;;;4.25;75.69
9774;BME280;4926;42.670;23.316;2024-03-08T05:58:31;94672.38;;;4.30;75.79
9774;BME280;4926;42.670;23.316;2024-03-08T06:00:57;94677.81;;;4.28;73.88
9774;BME280;4926;42.670;23.316;2024-03-08T06:03:22;94671.84;;;4.34;74.71
9774;BME280;4926;42.670;23.316;2024-03-08T06:05:49;94685.28;;;4.43;74.55
9774;BME280;4926;42.670;23.316;2024-03-08T06:08:15;94679.06;;;4.43;75.20
9774;BME280;4926;42.670;23.316;2024-03-08T06:10:40;94684.41;;;4.39;74.31
9774;BME280;4926;42.670;23.316;2024-03-08T06:13:06;94690.28;;;4.29;75.87
9774;BME280;4926;42.670;23.316;2024-03-08T06:15:32;94685.28;;;4.43;75.20
9774;BME280;4926;42.670;23.316;2024-03-08T06:17:57;94694.00;;;4.55;75.82
9774;BME280;4926;42.670;23.316;2024-03-08T06:20:23;94696.53;;;4.49;76.43
9774;BME280;4926;42.670;23.316;2024-03-08T06:22:51;94703.56;;;4.52;76.46
9774;BME280;4926;42.670;23.316;2024-03-08T06:25:17;94702.31;;;4.55;75.13
9774;BME280;4926;42.670;23.316;2024-03-08T06:27:46;94693.59;;;4.08;76.35
9774;BME280;4926;42.670;23.316;2024-03-08T06:30:12;94693.00;;;3.91;76.64
9774;BME280;4926;42.670;23.316;2024-03-08T06:32:38;94705.72;;;3.65;77.91
9774;BME280;4926;42.670;23.316;2024-03-08T06:35:04;94707.00;;;3.62;79.14
9774;BME280;4926;42.670;23.316;2024-03-08T06:37:32;94703.97;;;3.56;79.53
9774;BME280;4926;42.670;23.316;2024-03-08T06:39:57;94710.38;;;3.61;78.27
9774;BME280;4926;42.670;23.316;2024-03-08T06:42:23;94704.81;;;3.76;78.59
9774;BME280;4926;42.670;23.316;2024-03-08T06:44:48;94708.72;;;3.71;79.11
9774;BME280;4926;42.670;23.316;2024-03-08T06:47:17;94709.91;;;3.84;78.01
9774;BME280;4926;42.670;23.316;2024-03-08T06:49:43;94715.91;;;3.78;77.72
9774;BME280;4926;42.670;23.316;2024-03-08T06:52:11;94712.34;;;3.93;75.53
9774;BME280;4926;42.670;23.316;2024-03-08T06:54:37;94717.59;;;4.03;75.53
9774;BME280;4926;42.670;23.316;2024-03-08T06:57:05;94713.31;;;4.00;73.70
9774;BME280;4926;42.670;23.316;2024-03-08T06:59:34;94720.03;;;4.13;73.77
9774;BME280;4926;42.670;23.316;2024-03-08T07:02:01;94717.66;;;4.05;72.68
9774;BME280;4926;42.670;23.316;2024-03-08T07:04:27;94724.19;;;4.14;73.21
9774;BME280;4926;42.670;23.316;2024-03-08T07:06:57;94720.25;;;4.19;73.42
9774;BME280;4926;42.670;23.316;2024-03-08T07:09:26;94723.41;;;4.29;72.14
9774;BME280;4926;42.670;23.316;2024-03-08T07:11:54;94721.19;;;4.43;71.48
9774;BME280;4926;42.670;23.316;2024-03-08T07:14:23;94727.31;;;4.59;70.74
9774;BME280;4926;42.670;23.316;2024-03-08T07:16:49;94726.50;;;4.75;71.15
9774;BME280;4926;42.670;23.316;2024-03-08T07:19:15;94725.34;;;4.82;68.87
9774;BME280;4926;42.670;23.316;2024-03-08T07:21:42;94722.59;;;4.44;69.56
9774;BME280;4926;42.670;23.316;2024-03-08T07:24:08;94736.09;;;4.36;71.93
9774;BME280;4926;42.670;23.316;2024-03-08T07:26:45;94728.41;;;4.52;72.21
9774;BME280;4926;42.670;23.316;2024-03-08T07:29:15;94733.41;;;4.38;70.94
9774;BME280;4926;42.670;23.316;2024-03-08T07:31:41;94732.78;;;4.40;71.41
9774;BME280;4926;42.670;23.316;2024-03-08T07:34:06;94738.81;;;4.54;71.94
9774;BME280;4926;42.670;23.316;2024-03-08T07:36:33;94749.78;;;4.52;71.21
9774;BME280;4926;42.670;23.316;2024-03-08T07:39:00;94746.78;;;4.63;70.43
9774;BME280;4926;42.670;23.316;2024-03-08T07:41:26;94744.09;;;4.66;70.49
9774;BME280;4926;42.670;23.316;2024-03-08T07:43:51;94732.97;;;4.63;70.27
9774;BME280;4926;42.670;23.316;2024-03-08T07:46:17;94741.19;;;4.61;70.21
9774;BME280;4926;42.670;23.316;2024-03-08T07:48:44;94735.66;;;4.61;69.75
9774;BME280;4926;42.670;23.316;2024-03-08T07:51:10;94739.09;;;4.80;70.83
9774;BME280;4926;42.670;23.316;2024-03-08T07:53:37;94739.53;;;4.92;70.90
9774;BME280;4926;42.670;23.316;2024-03-08T07:56:04;94737.78;;;5.01;69.17
9774;BME280;4926;42.670;23.316;2024-03-08T07:58:30;94737.00;;;4.98;69.95
9774;BME280;4926;42.670;23.316;2024-03-08T08:00:56;94743.50;;;5.07;68.90
9774;BME280;4926;42.670;23.316;2024-03-08T08:03:21;94741.25;;;5.21;69.00
9774;BME280;4926;42.670;23.316;2024-03-08T08:05:50;94746.91;;;5.25;68.91
9774;BME280;4926;42.670;23.316;2024-03-08T08:08:15;94747.34;;;5.37;69.56
9774;BME280;4926;42.670;23.316;2024-03-08T08:10:41;94746.47;;;5.52;69.91
9774;BME280;4926;42.670;23.316;2024-03-08T08:13:09;94739.88;;;5.61;69.50
9774;BME280;4926;42.670;23.316;2024-03-08T08:15:34;94745.03;;;5.71;67.99
9774;BME280;4926;42.670;23.316;2024-03-08T08:18:00;94740.34;;;5.76;67.27
9774;BME280;4926;42.670;23.316;2024-03-08T08:20:26;94740.47;;;5.80;67.22
9774;BME280;4926;42.670;23.316;2024-03-08T08:22:53;94737.63;;;5.78;66.14
9774;BME280;4926;42.670;23.316;2024-03-08T08:25:20;94738.00;;;5.88;67.01
9774;BME280;4926;42.670;23.316;2024-03-08T08:27:46;94738.06;;;6.12;66.05
9774;BME280;4926;42.670;23.316;2024-03-08T08:30:12;94735.28;;;6.33;64.39
9774;BME280;4926;42.670;23.316;2024-03-08T08:32:39;94746.34;;;6.55;63.73
9774;BME280;4926;42.670;23.316;2024-03-08T08:35:05;94743.94;;;6.67;64.32
9774;BME280;4926;42.670;23.316;2024-03-08T08:37:31;94747.06;;;6.80;63.48
9774;BME280;4926;42.670;23.316;2024-03-08T08:39:57;94749.06;;;7.01;63.38
9774;BME280;4926;42.670;23.316;2024-03-08T08:42:24;94736.91;;;7.12;60.65
9774;BME280;4926;42.670;23.316;2024-03-08T08:44:50;94733.81;;;7.02;61.72
9774;BME280;4926;42.670;23.316;2024-03-08T08:47:16;94735.31;;;7.05;61.08
9774;BME280;4926;42.670;23.316;2024-03-08T08:49:44;94730.38;;;7.01;59.25
9774;BME280;4926;42.670;23.316;2024-03-08T08:52:11;94732.06;;;7.13;60.00
9774;BME280;4926;42.670;23.316;2024-03-08T08:54:37;94727.81;;;7.35;60.44
9774;BME280;4926;42.670;23.316;2024-03-08T08:57:02;94729.13;;;7.32;58.26
9774;BME280;4926;42.670;23.316;2024-03-08T08:59:33;94735.28;;;7.29;58.90
9774;BME280;4926;42.670;23.316;2024-03-08T09:02:04;94731.97;;;7.34;58.18
9774;BME280;4926;42.670;23.316;2024-03-08T09:04:30;94727.69;;;7.29;57.63
9774;BME280;4926;42.670;23.316;2024-03-08T09:06:56;94732.28;;;7.21;58.59
9774;BME280;4926;42.670;23.316;2024-03-08T09:09:22;94730.44;;;7.29;57.56
9774;BME280;4926;42.670;23.316;2024-03-08T09:11:48;94737.50;;;7.60;57.47
9774;BME280;4926;42.670;23.316;2024-03-08T09:14:15;94739.91;;;7.72;55.77
9774;BME280;4926;42.670;23.316;2024-03-08T09:16:43;94732.06;;;7.64;55.81
9774;BME280;4926;42.670;23.316;2024-03-08T09:19:09;94726.25;;;7.82;55.29
9774;BME280;4926;42.670;23.316;2024-03-08T09:21:36;94732.25;;;8.00;55.94
9774;BME280;4926;42.670;23.316;2024-03-08T09:24:02;94729.34;;;7.94;55.24
9774;BME280;4926;42.670;23.316;2024-03-08T09:26:27;94732.41;;;7.78;56.39
9774;BME280;4926;42.670;23.316;2024-03-08T09:28:53;94729.63;;;8.06;56.06
9774;BME280;4926;42.670;23.316;2024-03-08T09:31:22;94728.06;;;8.27;55.64
9774;BME280;4926;42.670;23.316;2024-03-08T09:33:47;94728.88;;;8.32;54.09
9774;BME280;4926;42.670;23.316;2024-03-08T09:36:13;94725.88;;;8.24;55.06
9774;BME280;4926;42.670;23.316;2024-03-08T09:38:39;94724.75;;;7.77;54.24
9774;BME280;4926;42.670;23.316;2024-03-08T09:41:05;94728.78;;;7.72;55.08
9774;BME280;4926;42.670;23.316;2024-03-08T09:43:31;94721.81;;;7.71;54.96
9774;BME280;4926;42.670;23.316;2024-03-08T09:45:57;94731.75;;;8.08;55.40
9774;BME280;4926;42.670;23.316;2024-03-08T09:48:23;94727.13;;;8.18;54.61
9774;BME280;4926;42.670;23.316;2024-03-08T09:50:49;94732.22;;;7.98;54.21
9774;BME280;4926;42.670;23.316;2024-03-08T09:53:15;94724.13;;;8.08;53.48
9774;BME280;4926;42.670;23.316;2024-03-08T09:55:42;94732.97;;;8.01;53.44
9774;BME280;4926;42.670;23.316;2024-03-08T09:58:13;94732.81;;;7.95;54.35
9774;BME280;4926;42.670;23.316;2024-03-08T10:00:58;94723.44;;;7.80;56.04
9774;BME280;4926;42.670;23.316;2024-03-08T10:03:24;94722.72;;;7.79;54.45
9774;BME280;4926;42.670;23.316;2024-03-08T10:05:54;94726.31;;;8.12;54.59
9774;BME280;4926;42.670;23.316;2024-03-08T10:08:22;94725.25;;;8.55;53.45
9774;BME280;4926;42.670;23.316;2024-03-08T10:10:47;94735.22;;;8.66;52.96
9774;BME280;4926;42.670;23.316;2024-03-08T10:13:15;94726.50;;;8.50;54.04
9774;BME280;4926;42.670;23.316;2024-03-08T10:15:45;94723.50;;;8.40;54.39
9774;BME280;4926;42.670;23.316;2024-03-08T10:18:10;94730.25;;;8.63;54.31
9774;BME280;4926;42.670;23.316;2024-03-08T10:20:36;94721.97;;;8.99;52.82
9774;BME280;4926;42.670;23.316;2024-03-08T10:23:04;94728.59;;;8.81;53.13
9774;BME280;4926;42.670;23.316;2024-03-08T10:25:33;94729.69;;;8.68;52.88
9774;BME280;4926;42.670;23.316;2024-03-08T10:28:00;94731.56;;;8.30;53.66
9774;BME280;4926;42.670;23.316;2024-03-08T10:30:29;94732.75;;;8.21;54.57
9774;BME280;4926;42.670;23.316;2024-03-08T10:32:54;94723.88;;;8.28;55.48
9774;BME280;4926;42.670;23.316;2024-03-08T10:35:20;94727.09;;;8.76;52.82
9774;BME280;4926;42.670;23.316;2024-03-08T10:37:49;94720.16;;;9.47;51.10
9774;BME280;4926;42.670;23.316;2024-03-08T10:40:23;94708.09;;;10.15;48.71
9774;BME280;4926;42.670;23.316;2024-03-08T10:42:57;94711.91;;;10.80;46.49
9774;BME280;4926;42.670;23.316;2024-03-08T10:50:48;94709.63;;;11.83;42.51
9774;BME280;4926;42.670;23.316;2024-03-08T10:53:19;94708.72;;;12.40;42.21
9774;BME280;4926;42.670;23.316;2024-03-08T10:55:49;94705.47;;;12.78;41.01
9774;BME280;4926;42.670;23.316;2024-03-08T10:58:15;94705.53;;;12.87;40.06
9774;BME280;4926;42.670;23.316;2024-03-08T11:00:42;94706.06;;;12.61;41.25
9774;BME280;4926;42.670;23.316;2024-03-08T11:09:11;94688.59;;;11.13;43.89
9774;BME280;4926;42.670;23.316;2024-03-08T11:11:52;94679.09;;;10.78;45.29
9774;BME280;4926;42.670;23.316;2024-03-08T11:14:44;94683.44;;;10.41;46.04
9774;BME280;4926;42.670;23.316;2024-03-08T11:17:13;94680.06;;;10.03;45.31
9774;BME280;4926;42.670;23.316;2024-03-08T11:19:46;94681.50;;;9.64;46.80
9774;BME280;4926;42.670;23.316;2024-03-08T11:22:21;94674.09;;;9.78;47.83
9774;BME280;4926;42.670;23.316;2024-03-08T11:24:49;94677.22;;;9.58;47.85
9774;BME280;4926;42.670;23.316;2024-03-08T11:27:15;94671.41;;;9.44;49.11
9774;BME280;4926;42.670;23.316;2024-03-08T11:29:41;94676.53;;;9.20;50.22
9774;BME280;4926;42.670;23.316;2024-03-08T11:32:14;94669.56;;;9.19;50.25
9774;BME280;4926;42.670;23.316;2024-03-08T11:34:41;94664.59;;;9.15;50.73
9774;BME280;4926;42.670;23.316;2024-03-08T11:37:19;94667.94;;;9.08;50.28
9774;BME280;4926;42.670;23.316;2024-03-08T11:39:55;94672.44;;;8.55;51.86
9774;BME280;4926;42.670;23.316;2024-03-08T11:42:24;94668.97;;;8.55;50.43
9774;BME280;4926;42.670;23.316;2024-03-08T11:44:52;94664.81;;;8.89;50.94
9774;BME280;4926;42.670;23.316;2024-03-08T11:47:18;94656.88;;;9.10;49.64
9774;BME280;4926;42.670;23.316;2024-03-08T11:49:45;94666.75;;;9.57;47.71
9774;BME280;4926;42.670;23.316;2024-03-08T11:52:14;94661.56;;;10.21;46.13
9774;BME280;4926;42.670;23.316;2024-03-08T11:54:40;94659.59;;;10.80;44.14
9774;BME280;4926;42.670;23.316;2024-03-08T11:57:06;94653.84;;;10.66;43.56
9774;BME280;4926;42.670;23.316;2024-03-08T11:59:32;94657.66;;;10.91;43.05
9774;BME280;4926;42.670;23.316;2024-03-08T12:02:03;94656.25;;;11.56;42.13
9774;BME280;4926;42.670;23.316;2024-03-08T12:04:29;94658.94;;;12.23;41.06
9774;BME280;4926;42.670;23.316;2024-03-08T12:06:57;94653.63;;;12.65;39.85
9774;BME280;4926;42.670;23.316;2024-03-08T12:09:28;94650.16;;;12.69;39.88
9774;BME280;4926;42.670;23.316;2024-03-08T12:11:54;94656.88;;;12.25;40.29
9774;BME280;4926;42.670;23.316;2024-03-08T12:14:20;94659.75;;;12.37;40.19
9774;BME280;4926;42.670;23.316;2024-03-08T12:16:46;94667.53;;;12.51;40.78
9774;BME280;4926;42.670;23.316;2024-03-08T12:19:13;94662.66;;;12.54;39.81
9774;BME280;4926;42.670;23.316;2024-03-08T12:21:39;94652.97;;;12.73;39.52
9774;BME280;4926;42.670;23.316;2024-03-08T12:24:14;94658.69;;;12.97;38.89
9774;BME280;4926;42.670;23.316;2024-03-08T12:26:42;94649.56;;;12.87;38.97
9774;BME280;4926;42.670;23.316;2024-03-08T12:29:20;94655.09;;;12.76;39.34
9774;BME280;4926;42.670;23.316;2024-03-08T12:31:51;94657.56;;;12.26;40.21
9774;BME280;4926;42.670;23.316;2024-03-08T12:34:18;94642.97;;;11.53;41.60
9774;BME280;4926;42.670;23.316;2024-03-08T12:36:45;94643.31;;;11.87;41.11
9774;BME280;4926;42.670;23.316;2024-03-08T12:39:16;94644.94;;;12.17;41.28
9774;BME280;4926;42.670;23.316;2024-03-08T12:41:43;94639.09;;;11.86;41.12
9774;BME280;4926;42.670;23.316;2024-03-08T12:44:09;94639.75;;;11.83;42.03
9774;BME280;4926;42.670;23.316;2024-03-08T12:46:37;94635.06;;;11.31;43.93
9774;BME280;4926;42.670;23.316;2024-03-08T12:49:08;94635.53;;;10.53;45.18
9774;BME280;4926;42.670;23.316;2024-03-08T12:51:35;94629.50;;;10.20;46.72
9774;BME280;4926;42.670;23.316;2024-03-08T12:54:04;94627.22;;;10.09;46.69
9774;BME280;4926;42.670;23.316;2024-03-08T12:56:31;94626.59;;;9.68;48.52
9774;BME280;4926;42.670;23.316;2024-03-08T12:58:59;94618.50;;;9.42;48.42
9774;BME280;4926;42.670;23.316;2024-03-08T13:01:24;94621.97;;;9.43;47.56
9774;BME280;4926;42.670;23.316;2024-03-08T13:03:50;94629.06;;;9.50;48.73
9774;BME280;4926;42.670;23.316;2024-03-08T13:06:15;94627.34;;;9.73;48.24
9774;BME280;4926;42.670;23.316;2024-03-08T13:08:41;94631.53;;;10.18;46.97
9774;BME280;4926;42.670;23.316;2024-03-08T13:11:07;94635.28;;;10.35;45.63
9774;BME280;4926;42.670;23.316;2024-03-08T13:13:33;94629.78;;;10.41;45.17
9774;BME280;4926;42.670;23.316;2024-03-08T13:16:02;94633.06;;;10.77;44.69
9774;BME280;4926;42.670;23.316;2024-03-08T13:18:37;94631.09;;;10.88;43.98
9774;BME280;4926;42.670;23.316;2024-03-08T13:21:03;94630.47;;;10.93;43.86
9774;BME280;4926;42.670;23.316;2024-03-08T13:23:32;94629.19;;;11.02;43.68
9774;BME280;4926;42.670;23.316;2024-03-08T13:25:58;94628.75;;;10.66;43.57
9774;BME280;4926;42.670;23.316;2024-03-08T13:28:24;94632.06;;;10.54;43.53
9774;BME280;4926;42.670;23.316;2024-03-08T13:30:55;94632.59;;;9.96;46.09